Tiempo atmosférico en la estación meteorológica de Bañobárez, Salamanca (748 m.)



Fecha
DESCASC
Temp. máxima en grados centígrados (hora)
DESCASC
Temp. mínima en grados centígrados (hora)
DESCASC
Temp. media en grados centígrados
DESCASC
Racha de viento máxima en m/sg (hora)
DESCASC
Velocidad máxima media en intervalos de 10 minutos(hora)
DESCASC
Precipitaciones diarias en mm
DESCASC
Precipitaciones de 00:00 a 06:00 en mm
DESCASC
Precipitaciones de 06:00 a 12:00 en mm
DESCASC
Precipitaciones de 12:00 a 18:00 en mm
DESCASC
Precipitaciones de 18:00 a 24:00 en mm
DESCASC
27-01-2020 9.3 (17:20) 4.6 (01:30) 7 12.5 (11:50) 7.78 (12:30) -- -- -- -- --
26-01-2020 10.1 (15:20) -1.9 (08:20) 4.1 7.22 (15:30) 5 (16:40) -- -- -- -- --
25-01-2020 7.3 (14:00) 0.2 (00:00) 3.8 6.11 (00:10) 4.17 (00:10) -- -- -- -- --
24-01-2020 9.1 (12:40) 4.3 (00:00) 6.7 6.11 (23:59) 4.17 (23:59) -- -- -- -- --
23-01-2020 7.9 (15:50) 2.7 (00:00) 5.3 7.22 (19:40) 4.44 (19:50) -- -- -- -- --
22-01-2020 9 (15:40) 3 (00:00) 6 11.67 (04:50) 6.67 (11:20) -- -- -- -- --
21-01-2020 5.8 (16:00) -0.4 (00:00) 2.7 12.78 (11:40) 8.06 (11:20) -- -- -- -- --
20-01-2020 3.3 (16:50) 0 (00:00) 1.6 20 (11:30) 13.06 (11:40) -- -- -- -- --
19-01-2020 8.6 (15:40) 1.7 (00:00) 5.2 16.11 (15:20) 10.56 (15:20) -- -- -- -- --
18-01-2020 12 (15:40) 5.3 (00:00) 8.7 14.72 (17:50) 9.72 (17:50) -- -- -- -- --
17-01-2020 10 (15:50) 4.8 (00:00) 7.4 10 (05:30) 5.56 (01:40) -- -- -- -- --
16-01-2020 11.4 (14:00) 6.2 (00:00) 8.8 14.72 (13:20) 9.17 (14:10) -- -- -- -- --
15-01-2020 10.9 (14:40) 6.4 (00:00) 8.6 13.33 (15:00) 8.06 (07:00) -- -- -- -- --
14-01-2020 6.8 (23:50) 2.4 (00:00) 4.6 11.39 (17:50) 6.67 (16:20) -- -- -- -- --
13-01-2020 9.9 (15:30) -4.2 (-00:0) 2.8 7.5 (13:30) 5 (13:30) -- -- -- -- --
12-01-2020 9 (16:30) -3.9 (09:00) 2.5 3.61 (13:10) 2.22 (02:50) -- -- -- -- --
11-01-2020 7.8 (16:20) -1.8 (-00:0) 3 6.39 (11:00) 3.89 (14:00) -- -- -- -- --
10-01-2020 8.8 (15:50) -1.4 (-00:0) 3.7 7.78 (15:30) 5 (15:30) -- -- -- -- --
09-01-2020 12 (16:10) -1.2 (-00:0) 5.4 11.11 (18:20) 6.39 (18:10) -- -- -- -- --
08-01-2020 7.7 (15:40) -5.4 (-00:0) 1.1 3.61 (14:20) 2.5 (16:00) -- -- -- -- --
07-01-2020 4.4 (16:50) -4 (-00:0) 0.2 2.78 (16:10) 1.67 (16:00) -- -- -- -- --
06-01-2020 4.5 (16:30) -3 (-00:0) 0.8 4.17 (13:50) 2.5 (13:50) -- -- -- -- --
05-01-2020 3.3 (16:40) 0 (00:00) 1.6 6.11 (03:40) 3.89 (03:40) -- -- -- -- --
04-01-2020 7.8 (00:00) 1.9 (00:00) 4.9 8.89 (18:20) 5 (14:30) -- -- -- -- --
03-01-2020 9.6 (15:40) 3.5 (00:00) 6.6 4.72 (15:20) 3.06 (15:20) -- -- -- -- --
02-01-2020 12.2 (16:00) -1.7 (-00:0) 5.2 5 (12:40) 3.33 (14:00) -- -- -- -- --
01-01-2020 12.1 (15:20) -2.9 (-00:0) 4.6 3.06 (11:00) 1.67 (22:20) -- -- -- -- --
31-12-2019 12.2 (16:30) -2.1 (-00:0) 5 2.5 (15:20) 1.67 (05:30) -- -- -- -- --
30-12-2019 -- (--) -- (--) -- -- (--) -- (--) -- -- -- -- --

Gráficas

Temp. máximas Temp. mínimas Temp. medias Precipitaciones Rachas de viento máximas Velocidades máximas media en intervalos de 10 minutos

Datos horarios

Fecha y hora oficial Temperatura (ºC) Velocidad del viento (km/h) Dirección del viento Racha (km/h) Dirección de racha Precipitación (mm) Presión (hPa) Tendencia (hPa) Humedad (%)
2020-01-28 23:00:00 -- -- -- -- -- -- -- -- --
2020-01-28 22:00:00 10.1 18 Oeste 32 Oeste -- -- -- 92
2020-01-28 21:00:00 10.2 19 Oeste 33 Oeste -- -- -- 93
2020-01-28 20:00:00 10.3 19 Sudoeste 32 Oeste -- -- -- 93
2020-01-28 19:00:00 10.5 23 Oeste 38 Oeste -- -- -- 92
2020-01-28 18:00:00 10.8 17 Sudoeste 31 Sudoeste -- -- -- 94
2020-01-28 17:00:00 10.9 14 Sudoeste 34 Sudoeste -- -- -- 92
2020-01-28 16:00:00 10.8 16 Sudoeste 32 Oeste -- -- -- 93
2020-01-28 15:00:00 10.6 18 Oeste 32 Oeste -- -- -- 93
2020-01-28 14:00:00 11.1 20 Oeste 35 Sudoeste -- -- -- 89
2020-01-28 13:00:00 10.7 19 Oeste 35 Sudoeste -- -- -- 95
2020-01-28 12:00:00 10.2 14 Sudoeste 23 Sudoeste -- -- -- 96
2020-01-28 11:00:00 9.9 12 Sudoeste 23 Sudoeste -- -- -- 96
2020-01-28 10:00:00 9.5 12 Sudoeste 21 Sur -- -- -- 97
2020-01-28 09:00:00 9.2 10 Sur 18 Sur -- -- -- 97
2020-01-28 08:00:00 9.1 8 Sur 19 Sudoeste -- -- -- 97
2020-01-28 07:00:00 9.2 10 Sudoeste 21 Sudoeste -- -- -- 96
2020-01-28 06:00:00 9.1 14 Sudoeste 24 Sudoeste -- -- -- 96
2020-01-28 05:00:00 9.2 16 Sudoeste 32 Sudoeste -- -- -- 95
2020-01-28 04:00:00 9.1 19 Sudoeste 32 Sudoeste -- -- -- 95
2020-01-28 03:00:00 9 17 Sudoeste 29 Sur -- -- -- 93
2020-01-28 02:00:00 8.7 15 Sudoeste 30 Sudoeste -- -- -- 93
2020-01-28 01:00:00 8.6 18 Sudoeste 32 Sudoeste -- -- -- 92
2020-01-28 00:00:00 8.6 17 Sudoeste 29 Sudoeste -- -- -- 93
2020-01-27 23:00:00 8.8 19 Sudoeste 31 Sudoeste -- -- -- 92
2020-01-27 22:00:00 8.9 18 Sudoeste 31 Sudoeste -- -- -- 91
2020-01-27 21:00:00 9.1 17 Sudoeste 33 Sudoeste -- -- -- 92
2020-01-27 20:00:00 8.9 16 Sudoeste 28 Sudoeste -- -- -- 92
2020-01-27 19:00:00 9 9 Oeste 26 Sudoeste -- -- -- 92
2020-01-27 18:00:00 9.3 17 Oeste 35 Sudoeste -- -- -- 92
2020-01-27 17:00:00 9.1 16 Sudoeste 33 Sudoeste -- -- -- 92
2020-01-27 16:00:00 8.6 22 Sudoeste 37 Sudoeste -- -- -- 93
2020-01-27 15:00:00 8.6 22 Sudoeste 42 Sudoeste -- -- -- 91
2020-01-27 14:00:00 8.8 24 Sudoeste 42 Sudoeste -- -- -- 91
2020-01-27 13:00:00 8.9 24 Sudoeste 44 Sudoeste -- -- -- 89
2020-01-27 12:00:00 8.5 21 Sudoeste 45 Sudoeste -- -- -- 89
2020-01-27 11:00:00 7.7 21 Sudoeste 40 Sudoeste -- -- -- 93
2020-01-27 10:00:00 7.1 19 Sur 35 Sur -- -- -- 93
2020-01-27 09:00:00 7.1 20 Sur 36 Sur -- -- -- 91
2020-01-27 08:00:00 6.6 15 Sur 30 Sudoeste -- -- -- 92
2020-01-27 07:00:00 6.3 18 Sur 37 Sur -- -- -- 91
2020-01-27 06:00:00 6.1 16 Sur 28 Sudoeste -- -- -- 91
2020-01-27 05:00:00 6.2 18 Sur 29 Sur -- -- -- 91
2020-01-27 04:00:00 5.4 14 Sur 25 Sur -- -- -- 93
2020-01-27 03:00:00 5.3 13 Sur 22 Sudoeste -- -- -- 92
2020-01-27 02:00:00 5 14 Sur 22 Sur -- -- -- 94
2020-01-27 01:00:00 4.9 11 Sur 19 Sur -- -- -- 93
2020-01-27 00:00:00 5 8 Sur 17 Sur -- -- -- 92
2020-01-26 23:00:00 6.1 9 Sur 18 Sudoeste -- -- -- 90
2020-01-26 22:00:00 7.2 8 Sudoeste 21 Sudoeste -- -- -- 87
2020-01-26 21:00:00 7.5 12 Sudoeste 19 Sudoeste -- -- -- 83
2020-01-26 20:00:00 7.5 6 Sudoeste 11 Sudoeste -- -- -- 80
2020-01-26 19:00:00 8 6 Oeste 18 Oeste -- -- -- 76
2020-01-26 18:00:00 8.6 10 Oeste 18 Oeste -- -- -- 72
2020-01-26 17:00:00 9 11 Oeste 26 Oeste -- -- -- 69
2020-01-26 16:00:00 9.3 16 Oeste 26 Oeste -- -- -- 68
2020-01-26 15:00:00 9.5 14 Oeste 25 Oeste -- -- -- 65
2020-01-26 14:00:00 7.5 7 Oeste 22 Oeste -- -- -- 80
2020-01-26 13:00:00 7.5 14 Oeste 25 Oeste -- -- -- 81
2020-01-26 12:00:00 5.7 9 Sudoeste 16 Sudoeste -- -- -- 90
2020-01-26 11:00:00 3.5 5 Sur 11 Sur -- -- -- 99
2020-01-26 10:00:00 0.7 7 Sur 9 Sur -- -- -- 99
2020-01-26 09:00:00 -1.6 9 Sur 14 Sur -- -- -- 99
2020-01-26 08:00:00 -1.5 9 Sur 13 Sur -- -- -- 98
2020-01-26 07:00:00 -1 7 Sur 13 Sur -- -- -- 99
2020-01-26 06:00:00 -1.8 6 Sur 10 Sur -- -- -- 98
2020-01-26 05:00:00 -1.2 9 Sur 12 Sur -- -- -- 98
2020-01-26 04:00:00 -0.1 8 Sur 11 Sudoeste -- -- -- 98
2020-01-26 03:00:00 1.1 5 Sudoeste 11 Sur -- -- -- 98
2020-01-26 02:00:00 0.9 6 Sur 9 Sur -- -- -- 99
2020-01-26 01:00:00 0.6 4 Sur 5 Sur -- -- -- 97
2020-01-26 00:00:00 0.6 0 Calma 5 Sudoeste -- -- -- 97
2020-01-25 23:00:00 0.3 0 Calma -- -- -- -- -- 96
2020-01-25 22:00:00 0.9 2 Sudeste 3 Este -- -- -- 96
2020-01-25 21:00:00 1 0 Calma 0 Calma -- -- -- 93
2020-01-25 20:00:00 2.7 0 Calma 2 Oeste -- -- -- 90
2020-01-25 19:00:00 6.2 3 Noroeste 7 Norte -- -- -- 86
2020-01-25 18:00:00 6.9 6 Norte 13 Norte -- -- -- 83
2020-01-25 17:00:00 7.1 9 Norte 17 Noroeste -- -- -- 85
2020-01-25 16:00:00 7.2 8 Norte 13 Norte -- -- -- 84
2020-01-25 15:00:00 7.2 5 Norte 9 Norte -- -- -- 84
2020-01-25 14:00:00 7.3 4 Nordeste 8 Nordeste -- -- -- 85
2020-01-25 13:00:00 6.7 4 Nordeste 11 Este -- -- -- 89
2020-01-25 12:00:00 6.1 6 Nordeste 10 Nordeste -- -- -- 94
2020-01-25 11:00:00 5 5 Nordeste 11 Nordeste -- -- -- 96
2020-01-25 10:00:00 3.8 3 Norte 8 Norte -- -- -- 96
2020-01-25 09:00:00 3.8 4 Norte 6 Norte -- -- -- 96
2020-01-25 08:00:00 3.9 0 Calma 8 Este -- -- -- 95
2020-01-25 07:00:00 4 4 Este 12 Este -- -- -- 94
2020-01-25 06:00:00 4 5 Nordeste 9 Este -- -- -- 95
2020-01-25 05:00:00 4.4 6 Este 10 Este -- -- -- 94
2020-01-25 04:00:00 4.9 6 Este 12 Este -- -- -- 93
2020-01-25 03:00:00 5 5 Sudeste 9 Este -- -- -- 94
2020-01-25 02:00:00 5.2 6 Este 15 Este -- -- -- 93
2020-01-25 01:00:00 5.4 12 Este 22 Este -- -- -- 93
2020-01-25 00:00:00 5.7 15 Este 22 Este -- -- -- 90
2020-01-24 23:00:00 5.5 6 Este 13 Este -- -- -- 89
2020-01-24 22:00:00 5.9 10 Este 16 Nordeste -- -- -- 85
2020-01-24 21:00:00 5.6 2 Este 5 Este -- -- -- 87
2020-01-24 20:00:00 5.9 4 Sudeste 6 Sudeste -- -- -- 85
2020-01-24 19:00:00 6.9 4 Sudeste 7 Sudeste -- -- -- 82
2020-01-24 18:00:00 8.1 5 Sur 11 Sur -- -- -- 74
2020-01-24 17:00:00 8.6 9 Sur 19 Sur -- -- -- 73
2020-01-24 16:00:00 9 7 Sur 14 Sudoeste -- -- -- 74
2020-01-24 15:00:00 8.9 8 Sudoeste 14 Sur -- -- -- 70
2020-01-24 14:00:00 8.9 9 Sur 16 Sudeste -- -- -- 72
2020-01-24 13:00:00 8.8 10 Sudeste 19 Sudeste -- -- -- 73
2020-01-24 12:00:00 8.5 7 Sur 14 Sur -- -- -- 78
2020-01-24 11:00:00 7.3 5 Este 13 Este -- -- -- 86
2020-01-24 10:00:00 5.1 6 Sudeste 12 Sudeste -- -- -- 96
2020-01-24 09:00:00 4.6 8 Este 12 Este -- -- -- 95
2020-01-24 08:00:00 5.2 7 Este 12 Sudeste -- -- -- 94
2020-01-24 07:00:00 5.1 6 Sudeste 9 Sudeste -- -- -- 94
2020-01-24 06:00:00 5.1 5 Este 9 Este -- -- -- 94
2020-01-24 05:00:00 5.4 5 Este 8 Este -- -- -- 92
2020-01-24 04:00:00 5.4 0 Calma 9 Sudeste -- -- -- 90
2020-01-24 03:00:00 5.8 5 Sur 15 Sudeste -- -- -- 90
2020-01-24 02:00:00 5.8 5 Sudeste 12 Este -- -- -- 91
2020-01-24 01:00:00 6 7 Este 11 Sur -- -- -- 91
2020-01-24 00:00:00 6.2 6 Sur 10 Sudeste -- -- -- 90
2020-01-23 23:00:00 6.1 6 Sudeste 18 Sudeste -- -- -- 90
2020-01-23 22:00:00 6.5 10 Sudeste 16 Sudeste -- -- -- 86
2020-01-23 21:00:00 6.3 9 Sudeste 19 Sudeste -- -- -- 85
2020-01-23 20:00:00 6.7 13 Sudeste 26 Sudeste -- -- -- 83
2020-01-23 19:00:00 6.5 4 Sudeste 9 Sudeste -- -- -- 86
2020-01-23 18:00:00 7.1 5 Sudeste 13 Sur -- -- -- 85
2020-01-23 17:00:00 7.5 5 Sudeste 12 Sudeste -- -- -- 81
2020-01-23 16:00:00 7.8 7 Sudeste 17 Sudeste -- -- -- 79
2020-01-23 15:00:00 7.5 10 Sudeste 18 Sudeste -- -- -- 81
2020-01-23 14:00:00 6.6 11 Este 21 Nordeste -- -- -- 84
2020-01-23 13:00:00 5 12 Este 17 Este -- -- -- 89
2020-01-23 12:00:00 3.5 10 Este 17 Este -- -- -- 93
2020-01-23 11:00:00 3 8 Nordeste 13 Este -- -- -- 92
2020-01-23 10:00:00 2.9 5 Nordeste 11 Nordeste -- -- -- 93
2020-01-23 09:00:00 3.2 3 Nordeste 12 Este -- -- -- 92
2020-01-23 08:00:00 3.4 8 Este 13 Este -- -- -- 91
2020-01-23 07:00:00 3.6 8 Este 14 Este -- -- -- 91
2020-01-23 06:00:00 3.2 0 Calma 13 Este -- -- -- 90
2020-01-23 05:00:00 4 9 Este 20 Este -- -- -- 88
2020-01-23 04:00:00 4.2 10 Este 19 Este -- -- -- 87
2020-01-23 03:00:00 4.1 9 Este 13 Este -- -- -- 86
2020-01-23 02:00:00 4.3 8 Este 15 Este -- -- -- 85
2020-01-23 01:00:00 4.8 8 Este 19 Este -- -- -- 83
2020-01-23 00:00:00 4.1 12 Este 17 Este -- -- -- 84
2020-01-22 23:00:00 3 9 Este 14 Este -- -- -- 87
2020-01-22 22:00:00 3.4 8 Este 17 Este -- -- -- 85
2020-01-22 21:00:00 5 12 Este 18 Nordeste -- -- -- 80
2020-01-22 20:00:00 5.2 8 Este 14 Este -- -- -- 79
2020-01-22 19:00:00 6.3 8 Este 13 Este -- -- -- 75
2020-01-22 18:00:00 7.7 5 Este 24 Este -- -- -- 73
2020-01-22 17:00:00 8.3 12 Este 27 Este -- -- -- 69
2020-01-22 16:00:00 8.8 14 Este 29 Este -- -- -- 69
2020-01-22 15:00:00 8.4 21 Este 37 Este -- -- -- 70
2020-01-22 14:00:00 8.6 19 Este 37 Este -- -- -- 71
2020-01-22 13:00:00 7.2 21 Este 38 Este -- -- -- 76
2020-01-22 12:00:00 5.3 18 Nordeste 36 Este -- -- -- 80
2020-01-22 11:00:00 4.8 19 Nordeste 31 Nordeste -- -- -- 83
2020-01-22 10:00:00 3.9 17 Este 32 Este -- -- -- 86
2020-01-22 09:00:00 3.7 22 Este 37 Nordeste -- -- -- 87
2020-01-22 08:00:00 3.5 21 Nordeste 32 Este -- -- -- 88
2020-01-22 07:00:00 3.6 18 Nordeste 35 Este -- -- -- 88
2020-01-22 06:00:00 3.7 23 Este 38 Este -- -- -- 86
2020-01-22 05:00:00 3.7 23 Nordeste 42 Nordeste -- -- -- 85
2020-01-22 04:00:00 3.9 20 Nordeste 31 Nordeste -- -- -- 84
2020-01-22 03:00:00 3.9 17 Este 28 Este -- -- -- 83
2020-01-22 02:00:00 3.5 10 Este 32 Este -- -- -- 85
2020-01-22 01:00:00 3.8 13 Este 32 Este -- -- -- 83
2020-01-22 00:00:00 3.8 14 Este 37 Este -- -- -- 83
2020-01-21 23:00:00 3.4 18 Este 33 Este -- -- -- 84
2020-01-21 22:00:00 3 12 Nordeste 25 Nordeste -- -- -- 85
2020-01-21 21:00:00 3.5 12 Nordeste 25 Este -- -- -- 83
2020-01-21 20:00:00 4.4 14 Nordeste 39 Nordeste -- -- -- 80
2020-01-21 19:00:00 4.9 24 Nordeste 53 Nordeste -- -- -- 76
2020-01-21 18:00:00 5.2 20 Nordeste 42 Nordeste -- -- -- 75
2020-01-21 17:00:00 5.6 18 Nordeste 39 Nordeste -- -- -- 73
2020-01-21 16:00:00 5.8 23 Nordeste 40 Este -- -- -- 72
2020-01-21 15:00:00 5.3 18 Nordeste 37 Nordeste -- -- -- 73
2020-01-21 14:00:00 4.6 19 Nordeste 31 Nordeste -- -- -- 73
2020-01-21 13:00:00 3.8 18 Nordeste 41 Nordeste -- -- -- 75
2020-01-21 12:00:00 2.8 22 Este 46 Nordeste -- -- -- 75
2020-01-21 11:00:00 2 23 Nordeste 43 Este -- -- -- 75
2020-01-21 10:00:00 0.7 15 Nordeste 27 Nordeste -- -- -- 81
2020-01-21 09:00:00 0.2 16 Nordeste 33 Nordeste -- -- -- 82
2020-01-21 08:00:00 0 15 Nordeste 28 Este -- -- -- 83
2020-01-21 07:00:00 -0.4 12 Nordeste 22 Nordeste -- -- -- 83
2020-01-21 06:00:00 -0.2 10 Este 26 Este -- -- -- 83
2020-01-21 05:00:00 0.2 10 Nordeste 19 Nordeste -- -- -- 84
2020-01-21 04:00:00 0 10 Nordeste 27 Este -- -- -- 83
2020-01-21 03:00:00 0.3 19 Nordeste 36 Nordeste -- -- -- 81
2020-01-21 02:00:00 0.1 13 Este 33 Este -- -- -- 85
2020-01-21 01:00:00 0.2 15 Este 37 Este -- -- -- 83
2020-01-21 00:00:00 0.8 21 Este 46 Este -- -- -- 78
2020-01-20 23:00:00 1.1 15 Este 35 Este -- -- -- 76
2020-01-20 22:00:00 0.9 17 Nordeste 32 Este -- -- -- 72
2020-01-20 21:00:00 1.1 20 Nordeste 32 Nordeste -- -- -- 72
2020-01-20 20:00:00 1.3 24 Nordeste 43 Nordeste -- -- -- 72
2020-01-20 19:00:00 1.7 23 Nordeste 46 Nordeste -- -- -- 70
2020-01-20 18:00:00 2.9 33 Nordeste 53 Nordeste -- -- -- 61
2020-01-20 17:00:00 3.2 35 Nordeste 57 Nordeste -- -- -- 59
2020-01-20 16:00:00 3.1 26 Este 58 Nordeste -- -- -- 58
2020-01-20 15:00:00 2.7 35 Nordeste 59 Nordeste -- -- -- 59
2020-01-20 14:00:00 2.8 36 Nordeste 67 Nordeste -- -- -- 56
2020-01-20 13:00:00 2.9 41 Nordeste 70 Este -- -- -- 56
2020-01-20 12:00:00 2.2 41 Nordeste 72 Este -- -- -- 60
2020-01-20 11:00:00 1.5 38 Nordeste 70 Este -- -- -- 65
2020-01-20 10:00:00 0.7 33 Nordeste 58 Nordeste -- -- -- 68
2020-01-20 09:00:00 0 30 Nordeste 57 Nordeste -- -- -- 71
2020-01-20 08:00:00 0.2 31 Nordeste 58 Este -- -- -- 70
2020-01-20 07:00:00 0.5 32 Este 59 Nordeste -- -- -- 68
2020-01-20 06:00:00 0.6 37 Nordeste 62 Nordeste -- -- -- 68
2020-01-20 05:00:00 0.6 35 Nordeste 64 Nordeste -- -- -- 70
2020-01-20 04:00:00 0.8 33 Este 52 Nordeste -- -- -- 68
2020-01-20 03:00:00 0.8 31 Nordeste 54 Nordeste -- -- -- 69
2020-01-20 02:00:00 1.1 31 Nordeste 54 Este -- -- -- 69
2020-01-20 01:00:00 1.2 21 Nordeste 52 Nordeste -- -- -- 68
2020-01-20 00:00:00 1.7 22 Este 57 Nordeste -- -- -- 64
2020-01-19 23:00:00 1.8 26 Nordeste 52 Nordeste -- -- -- 62
2020-01-19 22:00:00 2 21 Nordeste 46 Nordeste -- -- -- 59
2020-01-19 21:00:00 2.7 27 Nordeste 55 Nordeste -- -- -- 52
2020-01-19 20:00:00 3.4 23 Nordeste 42 Nordeste -- -- -- 54
2020-01-19 19:00:00 4.7 23 Nordeste 56 Este -- -- -- 47
2020-01-19 18:00:00 6.5 31 Nordeste 55 Este -- -- -- 44
2020-01-19 17:00:00 7.8 25 Nordeste 51 Nordeste -- -- -- 47
2020-01-19 16:00:00 8.6 30 Nordeste 58 Nordeste -- -- -- 48
2020-01-19 15:00:00 8.5 30 Nordeste 53 Nordeste -- -- -- 54
2020-01-19 14:00:00 7.9 28 Nordeste 48 Norte -- -- -- 59
2020-01-19 13:00:00 7.2 25 Nordeste 40 Nordeste -- -- -- 69
2020-01-19 12:00:00 6.4 21 Nordeste 35 Nordeste -- -- -- 75
2020-01-19 11:00:00 5.3 17 Nordeste 27 Nordeste -- -- -- 86
2020-01-19 10:00:00 4.7 13 Norte 21 Norte -- -- -- 95
2020-01-19 09:00:00 3.6 7 Norte 13 Norte -- -- -- 98
2020-01-19 08:00:00 2.7 6 Norte 11 Norte -- -- -- 98
2020-01-19 07:00:00 2.3 4 Norte 8 Noroeste -- -- -- 97
2020-01-19 06:00:00 3 5 Noroeste 9 Noroeste -- -- -- 96
2020-01-19 05:00:00 4 7 Noroeste 16 Noroeste -- -- -- 96
2020-01-19 04:00:00 4.9 11 Noroeste 26 Noroeste -- -- -- 95
2020-01-19 03:00:00 5.8 11 Noroeste 20 Noroeste -- -- -- 95
2020-01-19 02:00:00 5.8 12 Noroeste 24 Noroeste -- -- -- 94
2020-01-19 01:00:00 5.7 13 Noroeste 21 Noroeste -- -- -- 93
2020-01-19 00:00:00 5.6 9 Oeste 19 Oeste -- -- -- 90
2020-01-18 23:00:00 5.5 10 Oeste 21 Noroeste -- -- -- 90
2020-01-18 22:00:00 5.7 13 Noroeste 25 Oeste -- -- -- 89
2020-01-18 21:00:00 5.6 7 Noroeste 36 Noroeste -- -- -- 89
2020-01-18 20:00:00 7.6 22 Noroeste 34 Oeste -- -- -- 89
2020-01-18 19:00:00 9 22 Oeste 44 Oeste -- -- -- 79
2020-01-18 18:00:00 10 28 Oeste 53 Oeste -- -- -- 77
2020-01-18 17:00:00 10.6 29 Sudoeste 50 Sudoeste -- -- -- 84
2020-01-18 16:00:00 11.5 30 Sudoeste 49 Sudoeste -- -- -- 82
2020-01-18 15:00:00 10.8 22 Sudoeste 41 Sudoeste -- -- -- 87
2020-01-18 14:00:00 10.2 22 Sudoeste 36 Sur -- -- -- 85
2020-01-18 13:00:00 10 21 Sur 37 Sur -- -- -- 87
2020-01-18 12:00:00 9.1 17 Sudoeste 42 Sudoeste -- -- -- 89
2020-01-18 11:00:00 8.5 18 Sur 33 Sur -- -- -- 92
2020-01-18 10:00:00 7.6 19 Sur 36 Sur -- -- -- 94
2020-01-18 09:00:00 7.2 18 Sur 39 Sur -- -- -- 95
2020-01-18 08:00:00 7 22 Sur 40 Sur -- -- -- 93
2020-01-18 07:00:00 6.6 18 Sudeste 28 Sur -- -- -- 94
2020-01-18 06:00:00 6.7 14 Sur 27 Sur -- -- -- 94
2020-01-18 05:00:00 6.3 20 Sur 31 Sur -- -- -- 96
2020-01-18 04:00:00 6 4 Sudeste 14 Sur -- -- -- 93
2020-01-18 03:00:00 6.5 8 Sur 18 Sur -- -- -- 86
2020-01-18 02:00:00 6.1 11 Sur 18 Sur -- -- -- 89
2020-01-18 01:00:00 5.4 6 Sur 11 Sur -- -- -- 90
2020-01-18 00:00:00 5.7 6 Sur 12 Sur -- -- -- 84
2020-01-17 23:00:00 4.9 4 Sur 8 Sudeste -- -- -- 85
2020-01-17 22:00:00 5.5 5 Sudeste 8 Sudeste -- -- -- 84
2020-01-17 21:00:00 5.9 5 Sudeste 10 Este -- -- -- 84
2020-01-17 20:00:00 5.4 5 Este 8 Este -- -- -- 86
2020-01-17 19:00:00 6.7 0 Calma 6 Oeste -- -- -- 79
2020-01-17 18:00:00 8.8 0 Calma 5 Oeste -- -- -- 71
2020-01-17 17:00:00 9.5 3 Oeste 13 Oeste -- -- -- 67
2020-01-17 16:00:00 10 10 Oeste 18 Oeste -- -- -- 66
2020-01-17 15:00:00 9.8 10 Oeste 20 Oeste -- -- -- 66
2020-01-17 14:00:00 9.2 12 Oeste 21 Oeste -- -- -- 68
2020-01-17 13:00:00 8.4 9 Oeste 21 Oeste -- -- -- 79
2020-01-17 12:00:00 7.9 13 Oeste 19 Oeste -- -- -- 83
2020-01-17 11:00:00 7.2 10 Sudoeste 16 Sudoeste -- -- -- 92
2020-01-17 10:00:00 6.5 8 Sudoeste 14 Sudoeste -- -- -- 95
2020-01-17 09:00:00 6.4 4 Sudoeste 12 Oeste -- -- -- 97
2020-01-17 08:00:00 6.3 6 Oeste 15 Sudoeste -- -- -- 97
2020-01-17 07:00:00 6.7 8 Oeste 26 Sudoeste -- -- -- 96
2020-01-17 06:00:00 6.3 15 Sudoeste 36 Sudoeste -- -- -- 96
2020-01-17 05:00:00 6.3 17 Sudoeste 31 Sur -- -- -- 96
2020-01-17 04:00:00 6.3 18 Sudoeste 33 Sudoeste -- -- -- 95
2020-01-17 03:00:00 6.2 19 Sudoeste 33 Sudoeste -- -- -- 94
2020-01-17 02:00:00 6 15 Sudoeste 32 Sudoeste -- -- -- 94
2020-01-17 01:00:00 6 15 Sudoeste 24 Sudoeste -- -- -- 96
2020-01-17 00:00:00 6.2 9 Sur 18 Sudoeste -- -- -- 96
2020-01-16 23:00:00 6.6 9 Sur 32 Oeste -- -- -- 94
2020-01-16 22:00:00 7.7 19 Oeste 40 Sudoeste -- -- -- 93
2020-01-16 21:00:00 8.2 19 Sudoeste 38 Sur -- -- -- 92
2020-01-16 20:00:00 8.4 21 Sur 33 Sudoeste -- -- -- 90
2020-01-16 19:00:00 8.7 20 Sur 41 Sudoeste -- -- -- 87
2020-01-16 18:00:00 9.3 23 Sur 48 Sur -- -- -- 78
2020-01-16 17:00:00 9.9 27 Sur 47 Sur -- -- -- 75
2020-01-16 16:00:00 10.3 32 Sur 50 Sur -- -- -- 74
2020-01-16 15:00:00 10.8 27 Sur 53 Sur -- -- -- 70
2020-01-16 14:00:00 11.4 31 Sur 53 Sur -- -- -- 69
2020-01-16 13:00:00 10.2 25 Sur 42 Sudoeste -- -- -- 77
2020-01-16 12:00:00 9.7 22 Sur 39 Sur -- -- -- 82
2020-01-16 11:00:00 9.8 21 Sur 32 Sur -- -- -- 82
2020-01-16 10:00:00 8.7 14 Sur 33 Sur -- -- -- 92
2020-01-16 09:00:00 8.6 22 Sur 35 Sur -- -- -- 92
2020-01-16 08:00:00 8.9 19 Sur 37 Sudoeste -- -- -- 93
2020-01-16 07:00:00 8.8 17 Sur 31 Sur -- -- -- 94
2020-01-16 06:00:00 8.8 15 Sur 36 Sur -- -- -- 95
2020-01-16 05:00:00 8.8 16 Sur 33 Sur -- -- -- 95
2020-01-16 04:00:00 8.8 19 Sur 33 Sur -- -- -- 94
2020-01-16 03:00:00 8.8 17 Sur 33 Sur -- -- -- 96
2020-01-16 02:00:00 8.8 22 Sur 37 Sur -- -- -- 95
2020-01-16 01:00:00 8.8 19 Sur 42 Sur -- -- -- 95
2020-01-16 00:00:00 8.6 20 Sur 33 Sur -- -- -- 95
2020-01-15 23:00:00 8.7 17 Sur 31 Sur -- -- -- 94
2020-01-15 22:00:00 8.6 17 Sur 33 Sur -- -- -- 94
2020-01-15 21:00:00 8.9 15 Sur 28 Sur -- -- -- 93
2020-01-15 20:00:00 9 16 Sur 31 Sur -- -- -- 93
2020-01-15 19:00:00 9.1 16 Sur 27 Sur -- -- -- 91
2020-01-15 18:00:00 9.6 14 Sur 29 Sur -- -- -- 89
2020-01-15 17:00:00 9.9 17 Sur 33 Sur -- -- -- 88
2020-01-15 16:00:00 10.4 19 Sur 37 Sur -- -- -- 86
2020-01-15 15:00:00 10.7 26 Sur 48 Sur -- -- -- 83
2020-01-15 14:00:00 10.1 22 Sur 36 Sudoeste -- -- -- 90
2020-01-15 13:00:00 9.3 17 Sur 30 Sur -- -- -- 93
2020-01-15 12:00:00 7.7 15 Sur 28 Sur -- -- -- 95
2020-01-15 11:00:00 7 14 Sur 31 Sur -- -- -- 96
2020-01-15 10:00:00 6.9 15 Sur 42 Sur -- -- -- 94
2020-01-15 09:00:00 6.8 24 Sur 43 Sur -- -- -- 92
2020-01-15 08:00:00 6.5 26 Sur 48 Sur -- -- -- 93
2020-01-15 07:00:00 6.6 29 Sur 46 Sur -- -- -- 94
2020-01-15 06:00:00 6.8 23 Sur 41 Sur -- -- -- 93
2020-01-15 05:00:00 7.4 22 Sur 42 Sur -- -- -- 90
2020-01-15 04:00:00 7.7 23 Sur 42 Sur -- -- -- 86
2020-01-15 03:00:00 7.7 23 Sur 42 Sur -- -- -- 87
2020-01-15 02:00:00 7.6 22 Sur 37 Sur -- -- -- 88
2020-01-15 01:00:00 7.3 23 Sur 39 Sur -- -- -- 91
2020-01-15 00:00:00 6.8 21 Sur 36 Sur -- -- -- 94
2020-01-14 23:00:00 6.4 19 Sur 32 Sur -- -- -- 93
2020-01-14 22:00:00 6 19 Sur 33 Sur -- -- -- 93
2020-01-14 21:00:00 5.9 20 Sur 35 Sur -- -- -- 93
2020-01-14 20:00:00 5.6 20 Sur 39 Sur -- -- -- 92
2020-01-14 19:00:00 6 16 Sur 33 Sur -- -- -- 88
2020-01-14 18:00:00 6.2 21 Sur 41 Sur -- -- -- 86
2020-01-14 17:00:00 6.6 19 Sur 38 Sur -- -- -- 85
2020-01-14 16:00:00 6.6 21 Sur 35 Sur -- -- -- 85
2020-01-14 15:00:00 5.7 15 Sur 33 Sur -- -- -- 89
2020-01-14 14:00:00 5.7 19 Sur 30 Sur -- -- -- 87
2020-01-14 13:00:00 5.8 16 Sur 24 Sur -- -- -- 84
2020-01-14 12:00:00 5.5 16 Sur 31 Sur -- -- -- 84
2020-01-14 11:00:00 5 20 Sur 33 Sudoeste -- -- -- 84
2020-01-14 10:00:00 4.7 17 Sur 29 Sur -- -- -- 85
2020-01-14 09:00:00 3.8 13 Sur 21 Sur -- -- -- 88
2020-01-14 08:00:00 3.5 13 Sur 22 Sur -- -- -- 88
2020-01-14 07:00:00 2.8 9 Sur 16 Sur -- -- -- 90
2020-01-14 06:00:00 2.9 9 Sudeste 18 Sur -- -- -- 87
2020-01-14 05:00:00 3.5 10 Sudeste 15 Sur -- -- -- 85
2020-01-14 04:00:00 3.9 10 Sur 23 Sudoeste -- -- -- 83
2020-01-14 03:00:00 3.9 10 Sudoeste 18 Sudoeste -- -- -- 84
2020-01-14 02:00:00 4.1 10 Sudoeste 20 Sudoeste -- -- -- 83
2020-01-14 01:00:00 4.2 11 Sur 25 Sudoeste -- -- -- 83
2020-01-14 00:00:00 4.2 11 Sudoeste 22 Sur -- -- -- 84
2020-01-13 23:00:00 4.4 12 Sudoeste 21 Sudoeste -- -- -- 83
2020-01-13 22:00:00 4 10 Sudoeste 20 Sudoeste -- -- -- 84
2020-01-13 21:00:00 3.3 11 Sur 19 Sudoeste -- -- -- 83
2020-01-13 20:00:00 3.8 12 Sudoeste 24 Sudoeste -- -- -- 79
2020-01-13 19:00:00 4.6 6 Sur 18 Sur -- -- -- 73
2020-01-13 18:00:00 7.7 12 Sudoeste 23 Sudoeste -- -- -- 60
2020-01-13 17:00:00 9.3 15 Sudoeste 26 Sudoeste -- -- -- 54
2020-01-13 16:00:00 9.8 13 Sudoeste 25 Sudoeste -- -- -- 55
2020-01-13 15:00:00 8.7 12 Sudoeste 26 Sur -- -- -- 66
2020-01-13 14:00:00 7.9 13 Sudoeste 27 Sur -- -- -- 71
2020-01-13 13:00:00 6.3 11 Sudoeste 22 Sudoeste -- -- -- 77
2020-01-13 12:00:00 4.6 12 Sudoeste 19 Sudoeste -- -- -- 87
2020-01-13 11:00:00 0.7 3 Sudoeste 9 Sudoeste -- -- -- 98
2020-01-13 10:00:00 -2.8 2 Sudoeste 8 Norte -- -- -- 97
2020-01-13 09:00:00 -4 0 Calma 4 Este -- -- -- 96
2020-01-13 08:00:00 -3.7 5 Noroeste 9 Noroeste -- -- -- 95
2020-01-13 07:00:00 -2.4 5 Sur 14 Sur -- -- -- 95
2020-01-13 06:00:00 -3 3 Sudeste 5 Sur -- -- -- 97
2020-01-13 05:00:00 -4 2 Sudeste 4 Sudeste -- -- -- 96
2020-01-13 04:00:00 -3.6 4 Este 5 Este -- -- -- 96
2020-01-13 03:00:00 -3.8 0 Calma 2 Sudeste -- -- -- 96
2020-01-13 02:00:00 -3.5 0 Calma 2 Este -- -- -- 94
2020-01-13 01:00:00 -2.5 0 Calma 4 Este -- -- -- 93
2020-01-13 00:00:00 -1.3 4 Sudeste 6 Este -- -- -- 93
2020-01-12 23:00:00 -0.5 5 Este 8 Sudeste -- -- -- 93
2020-01-12 22:00:00 0 4 Este 9 Este -- -- -- 93
2020-01-12 21:00:00 0 3 Este 4 Este -- -- -- 91
2020-01-12 20:00:00 0.7 0 Calma 3 Norte -- -- -- 88
2020-01-12 19:00:00 2.6 0 Calma 3 Norte -- -- -- 79
2020-01-12 18:00:00 7.4 2 Norte 10 Noroeste -- -- -- 73
2020-01-12 17:00:00 8.6 8 Norte 12 Noroeste -- -- -- 69
2020-01-12 16:00:00 8.5 4 Nordeste 9 Norte -- -- -- 66
2020-01-12 15:00:00 8 4 Nordeste 10 Norte -- -- -- 69
2020-01-12 14:00:00 7 4 Nordeste 13 Nordeste -- -- -- 75
2020-01-12 13:00:00 5.9 5 Nordeste 12 Nordeste -- -- -- 78
2020-01-12 12:00:00 4.2 3 Norte 6 Norte -- -- -- 88
2020-01-12 11:00:00 1.8 0 Calma 7 Este -- -- -- 91
2020-01-12 10:00:00 -1.4 4 Sudeste 5 Sudeste -- -- -- 96
2020-01-12 09:00:00 -3.9 0 Calma 8 Sudeste -- -- -- 94
2020-01-12 08:00:00 -3.1 6 Sudeste 8 Sudeste -- -- -- 97
2020-01-12 07:00:00 -2.6 5 Sudeste 6 Sudeste -- -- -- 96
2020-01-12 06:00:00 -3 3 Sudeste 5 Sudeste -- -- -- 96
2020-01-12 05:00:00 -2.3 4 Sudeste 8 Sur -- -- -- 97
2020-01-12 04:00:00 -2.9 3 Sudeste -- -- -- -- -- 96
2020-01-12 03:00:00 -1.6 5 Sur 10 Sur -- -- -- 96
2020-01-12 02:00:00 -1.7 5 Sur 8 Sur -- -- -- 96
2020-01-12 01:00:00 -1.8 4 Sudeste 5 Sudeste -- -- -- 95
2020-01-12 00:00:00 -1.2 3 Este 10 Este -- -- -- 93
2020-01-11 23:00:00 -1.8 2 Sudeste 3 Sudeste -- -- -- 92
2020-01-11 22:00:00 -0.5 0 Calma 9 Este -- -- -- 88
2020-01-11 21:00:00 0.1 5 Este 8 Sudeste -- -- -- 89
2020-01-11 20:00:00 1.1 0 Calma 4 Nordeste -- -- -- 81
2020-01-11 19:00:00 4 2 Nordeste 6 Nordeste -- -- -- 78
2020-01-11 18:00:00 6.6 4 Norte 8 Nordeste -- -- -- 70
2020-01-11 17:00:00 7.6 6 Nordeste 11 Nordeste -- -- -- 67
2020-01-11 16:00:00 7.5 8 Nordeste 17 Este -- -- -- 64
2020-01-11 15:00:00 6.8 10 Nordeste 22 Este -- -- -- 71
2020-01-11 14:00:00 5.8 14 Este 21 Este -- -- -- 74
2020-01-11 13:00:00 5.6 12 Este 19 Este -- -- -- 78
2020-01-11 12:00:00 4.1 10 Este 18 Este -- -- -- 85
2020-01-11 11:00:00 3 13 Este 23 Este -- -- -- 89
2020-01-11 10:00:00 1 10 Este 16 Este -- -- -- 94
2020-01-11 09:00:00 -0.5 5 Este 15 Este -- -- -- 94
2020-01-11 08:00:00 -0.2 9 Este 12 Este -- -- -- 95
2020-01-11 07:00:00 -0.5 6 Este 13 Este -- -- -- 93
2020-01-11 06:00:00 0.1 9 Este 17 Este -- -- -- 92
2020-01-11 05:00:00 0.2 9 Este 15 Este -- -- -- 92
2020-01-11 04:00:00 0.2 12 Este 16 Este -- -- -- 91
2020-01-11 03:00:00 -0.3 8 Este 12 Sudeste -- -- -- 92
2020-01-11 02:00:00 0 6 Este 14 Este -- -- -- 90
2020-01-11 01:00:00 -1.2 4 Nordeste 7 Este -- -- -- 94
2020-01-11 00:00:00 -0.7 4 Este 6 Este -- -- -- 92
2020-01-10 23:00:00 -0.6 2 Nordeste 4 Nordeste -- -- -- 87
2020-01-10 22:00:00 0.9 0 Calma 14 Nordeste -- -- -- 84
2020-01-10 21:00:00 3.2 6 Nordeste 19 Este -- -- -- 80
2020-01-10 20:00:00 3.9 9 Este 14 Este -- -- -- 79
2020-01-10 19:00:00 5.2 9 Este 17 Nordeste -- -- -- 73
2020-01-10 18:00:00 7 11 Este 22 Nordeste -- -- -- 66
2020-01-10 17:00:00 8.2 14 Este 26 Nordeste -- -- -- 61
2020-01-10 16:00:00 8.7 17 Este 28 Este -- -- -- 58
2020-01-10 15:00:00 8.5 14 Nordeste 24 Nordeste -- -- -- 59
2020-01-10 14:00:00 7.7 17 Nordeste 26 Nordeste -- -- -- 62
2020-01-10 13:00:00 6.4 14 Nordeste 23 Este -- -- -- 74
2020-01-10 12:00:00 5.3 10 Nordeste 16 Nordeste -- -- -- 76
2020-01-10 11:00:00 3.3 8 Nordeste 14 Nordeste -- -- -- 88
2020-01-10 10:00:00 1.2 6 Nordeste 10 Este -- -- -- 98
2020-01-10 09:00:00 -1.3 3 Nordeste 6 Nordeste -- -- -- 97
2020-01-10 08:00:00 -0.4 3 Norte 6 Norte -- -- -- 97
2020-01-10 07:00:00 -0.5 5 Norte 6 Norte -- -- -- 96
2020-01-10 06:00:00 -0.6 0 Calma 6 Norte -- -- -- 93
2020-01-10 05:00:00 0.6 5 Norte 12 Norte -- -- -- 93
2020-01-10 04:00:00 1.4 10 Noroeste 19 Noroeste -- -- -- 91
2020-01-10 03:00:00 1.7 4 Noroeste 10 Noroeste -- -- -- 91
2020-01-10 02:00:00 2.1 5 Norte 19 Noroeste -- -- -- 88
2020-01-10 01:00:00 3.2 9 Noroeste 20 Noroeste -- -- -- 88
2020-01-10 00:00:00 4 7 Norte 14 Noroeste -- -- -- 88
2020-01-09 23:00:00 4.6 6 Noroeste 13 Noroeste -- -- -- 91
2020-01-09 22:00:00 5.8 7 Oeste 10 Noroeste -- -- -- 89
2020-01-09 21:00:00 6.3 6 Oeste 13 Oeste -- -- -- 92
2020-01-09 20:00:00 6.5 6 Oeste 16 Oeste -- -- -- 92
2020-01-09 19:00:00 8.3 11 Oeste 40 Noroeste -- -- -- 91
2020-01-09 18:00:00 10.1 20 Noroeste 34 Noroeste -- -- -- 88
2020-01-09 17:00:00 11.3 19 Oeste 36 Oeste -- -- -- 84
2020-01-09 16:00:00 11.6 11 Sudoeste 22 Sudoeste -- -- -- 87
2020-01-09 15:00:00 11 12 Sudoeste 21 Sudoeste -- -- -- 89
2020-01-09 14:00:00 9.1 8 Sudoeste 18 Sudoeste -- -- -- 98
2020-01-09 13:00:00 7.8 8 Sudoeste 17 Sudoeste -- -- -- 98
2020-01-09 12:00:00 6.7 7 Sudoeste 14 Sudoeste -- -- -- 98
2020-01-09 11:00:00 4.6 6 Sudoeste 14 Sur -- -- -- 95
2020-01-09 10:00:00 2.3 10 Sur 17 Sur -- -- -- 95
2020-01-09 09:00:00 1.8 11 Sur 15 Sur -- -- -- 96
2020-01-09 08:00:00 1.3 5 Sur 10 Sur -- -- -- 97
2020-01-09 07:00:00 0.7 9 Sur 14 Sur -- -- -- 97
2020-01-09 06:00:00 -0.5 3 Sur 9 Sur -- -- -- 98
2020-01-09 05:00:00 0.2 4 Sur 12 Sur -- -- -- 98
2020-01-09 04:00:00 0.4 11 Sur 13 Sur -- -- -- 98
2020-01-09 03:00:00 -0.9 3 Sur 11 Sur -- -- -- 96
2020-01-09 02:00:00 0.3 5 Sudeste 14 Sur -- -- -- 98
2020-01-09 01:00:00 -0.6 5 Sudeste 6 Sur -- -- -- 97
2020-01-09 00:00:00 -1.1 6 Sur 8 Sur -- -- -- 97
2020-01-08 23:00:00 -0.8 0 Calma 8 Sur -- -- -- 96
2020-01-08 22:00:00 -0.7 0 Calma 4 Sur -- -- -- 95
2020-01-08 21:00:00 0.1 3 Sur 4 Sur -- -- -- 95
2020-01-08 20:00:00 0.5 0 Calma 3 Sudoeste -- -- -- 92
2020-01-08 19:00:00 2.2 0 Calma 6 Oeste -- -- -- 87
2020-01-08 18:00:00 4.3 4 Oeste 10 Oeste -- -- -- 83
2020-01-08 17:00:00 6 5 Oeste 13 Oeste -- -- -- 82
2020-01-08 16:00:00 7 9 Oeste 13 Noroeste -- -- -- 79
2020-01-08 15:00:00 6.7 6 Norte 13 Norte -- -- -- 79
2020-01-08 14:00:00 4.4 7 Norte 10 Noroeste -- -- -- 95
2020-01-08 13:00:00 2.5 4 Norte 8 Norte -- -- -- 99
2020-01-08 12:00:00 -0.6 0 Calma 4 Norte -- -- -- 99
2020-01-08 11:00:00 -2.6 0 Calma 0 Calma -- -- -- 98
2020-01-08 10:00:00 -4.7 0 Calma -- -- -- -- -- 97
2020-01-08 09:00:00 -5.2 0 Calma -- -- -- -- -- 97
2020-01-08 08:00:00 -4.5 0 Calma -- -- -- -- -- 97
2020-01-08 07:00:00 -3.6 0 Calma -- -- -- -- -- 97
2020-01-08 06:00:00 -3.8 0 Calma -- -- -- -- -- 97
2020-01-08 05:00:00 -4.5 0 Calma -- -- -- -- -- 98
2020-01-08 04:00:00 -4.1 0 Calma -- -- -- -- -- 97
2020-01-08 03:00:00 -3.9 0 Calma -- -- -- -- -- 97
2020-01-08 02:00:00 -3.5 0 Calma -- -- -- -- -- 97
2020-01-08 01:00:00 -4.4 0 Calma -- -- -- -- -- 97
2020-01-08 00:00:00 -4 0 Calma -- -- -- -- -- 97
2020-01-07 23:00:00 -2.8 0 Calma -- -- -- -- -- 97
2020-01-07 22:00:00 -2.3 0 Calma 9 Norte -- -- -- 97
2020-01-07 21:00:00 -2.1 3 Norte 4 Noroeste -- -- -- 96
2020-01-07 20:00:00 -1.4 0 Calma 4 Norte -- -- -- 93
2020-01-07 19:00:00 0.6 2 Norte 6 Noroeste -- -- -- 90
2020-01-07 18:00:00 3.6 3 Norte 8 Noroeste -- -- -- 87
2020-01-07 17:00:00 4.4 5 Noroeste 10 Noroeste -- -- -- 87
2020-01-07 16:00:00 3.5 6 Noroeste 10 Noroeste -- -- -- 95
2020-01-07 15:00:00 2.2 4 Norte 9 Norte -- -- -- 99
2020-01-07 14:00:00 1.1 4 Nordeste 9 Este -- -- -- 99
2020-01-07 13:00:00 0.2 0 Calma 0 Calma -- -- -- 99
2020-01-07 12:00:00 -0.8 0 Calma -- -- -- -- -- 99
2020-01-07 11:00:00 -1.9 0 Calma -- -- -- -- -- 99
2020-01-07 10:00:00 -2.4 0 Calma -- -- -- -- -- 98
2020-01-07 09:00:00 -2.6 0 Calma -- -- -- -- -- 98
2020-01-07 08:00:00 -2.5 0 Calma -- -- -- -- -- 98
2020-01-07 07:00:00 -2.9 0 Calma -- -- -- -- -- 98
2020-01-07 06:00:00 -2.8 0 Calma 6 Este -- -- -- 98
2020-01-07 05:00:00 -2.8 4 Este 6 Este -- -- -- 98
2020-01-07 04:00:00 -2.2 3 Este 5 Este -- -- -- 98
2020-01-07 03:00:00 -2.6 3 Norte 6 Norte -- -- -- 98
2020-01-07 02:00:00 -3.6 2 Norte 3 Norte -- -- -- 97
2020-01-07 01:00:00 -3.5 0 Calma 3 Norte -- -- -- 97
2020-01-07 00:00:00 -3 0 Calma 4 Noroeste -- -- -- 97
2020-01-06 23:00:00 -2.1 4 Noroeste 5 Norte -- -- -- 96
2020-01-06 22:00:00 -1.4 2 Este 5 Este -- -- -- 96
2020-01-06 21:00:00 -1.4 0 Calma 5 Norte -- -- -- 95
2020-01-06 20:00:00 -0.3 0 Calma 4 Noroeste -- -- -- 93
2020-01-06 19:00:00 1.8 3 Noroeste 8 Noroeste -- -- -- 89
2020-01-06 18:00:00 4 5 Noroeste 8 Noroeste -- -- -- 85
2020-01-06 17:00:00 4.5 0 Calma 13 Noroeste -- -- -- 85
2020-01-06 16:00:00 4 6 Norte 11 Noroeste -- -- -- 86
2020-01-06 15:00:00 3.1 7 Norte 14 Noroeste -- -- -- 94
2020-01-06 14:00:00 2.9 9 Norte 15 Noroeste -- -- -- 98
2020-01-06 13:00:00 2.2 3 Sudoeste 8 Sudeste -- -- -- 99
2020-01-06 12:00:00 -0.3 2 Sudeste 4 Sudeste -- -- -- 99
2020-01-06 11:00:00 -1.8 0 Calma -- -- -- -- -- 99
2020-01-06 10:00:00 -2.3 0 Calma -- -- -- -- -- 99